Monitor — WCX9104 — position and weather

sailwx.info

Track history (hours):
 
Tides and Currents Weather Stations Pressure Air Temp Water Temp Dewpoint Dewpoint Depression Visibility Wind Speed Wind Dir Waves Ship Positions

Monitor

Owner: Crowley Puerto Rico Services, Inc., Jacksonville, FL. More information available from US FCC via Universal Licensing System and Coast Guard Vessel Documentation Center.

Last reported at 2018-Apr-20 16:16 UTC. Time now 2018-Apr-24 07:08 UTC.
Position N 26°28' W 076°43'.

Length 40 m; draft 5.8 m.

Type: Towing. MMSI: 366766920.

Date/timePositionNaut miles runAvg speedWind from/ knotsBaromVisibWave heightAir tempDewpointWater temp
2018-Apr-20 16:16N 26°28' W 076°43'6 9.5
2018-Apr-20 15:36N 26°33' W 076°48'1 9.8
2018-Apr-20 15:30N 26°34' W 076°48'5 9.6
2018-Apr-20 15:01N 26°38' W 076°52'5 9.8
2018-Apr-20 14:30N 26°42' W 076°55'510.1
2018-Apr-20 14:00N 26°46' W 076°59'  
2018-Apr-16 15:12N 26°19' W 079°54'312.9
2018-Apr-16 14:57N 26°16' W 079°54'612.7
2018-Apr-16 14:30N 26°10' W 079°54'510.1
2018-Apr-16 14:00N 26°08' W 079°59'510.0
2018-Apr-16 13:30N 26°06' W 080°04'3 5.4
2018-Apr-16 12:59N 26°05' W 080°07'1 2.0
2018-Apr-16 12:29N 26°04' W 080°07'0 1.0
2018-Apr-16 11:59N 26°04' W 080°07'0 0.0
2018-Apr-16 11:29N 26°04' W 080°07'0 0.0
2018-Apr-16 10:59N 26°04' W 080°07'0 0.0
2018-Apr-16 10:29N 26°04' W 080°07'0 0.0
2018-Apr-16 09:59N 26°04' W 080°07'0 0.0
2018-Apr-16 09:29N 26°04' W 080°07'0 0.0
2018-Apr-16 08:59N 26°04' W 080°07'0 0.0
2018-Apr-16 08:29N 26°04' W 080°07'0 0.0
2018-Apr-16 07:59N 26°04' W 080°07'0 0.0
2018-Apr-16 07:29N 26°04' W 080°07'0 0.0
2018-Apr-16 06:59N 26°04' W 080°07'0 0.0
2018-Apr-16 06:29N 26°04' W 080°07'0 0.0
2018-Apr-16 05:59N 26°04' W 080°07'0 0.0
2018-Apr-16 05:29N 26°04' W 080°07'0 0.0
2018-Apr-16 04:59N 26°04' W 080°07'0 0.0
2018-Apr-16 04:29N 26°04' W 080°07'0 0.0
2018-Apr-16 03:59N 26°04' W 080°07'0 0.0
2018-Apr-16 03:29N 26°04' W 080°07'0 0.0
2018-Apr-16 02:59N 26°04' W 080°07'0 0.0
2018-Apr-16 02:29N 26°04' W 080°07'0 0.0
2018-Apr-16 01:59N 26°04' W 080°07'0 0.0
2018-Apr-16 01:29N 26°04' W 080°07'0 0.0
2018-Apr-16 00:59N 26°04' W 080°07'0 0.0
2018-Apr-16 00:29N 26°04' W 080°07'0 0.0
2018-Apr-15 23:59N 26°04' W 080°07'0 0.0
2018-Apr-15 23:29N 26°04' W 080°07'0 0.0
2018-Apr-15 22:59N 26°04' W 080°07'0 0.0
2018-Apr-15 22:29N 26°04' W 080°07'0 0.0
2018-Apr-15 21:59N 26°04' W 080°07'0 0.0
2018-Apr-15 21:29N 26°04' W 080°07'0 0.0
2018-Apr-15 20:59N 26°04' W 080°07'0 0.0
2018-Apr-15 20:29N 26°04' W 080°07'0 0.0
2018-Apr-15 19:59N 26°04' W 080°07'0 0.0
2018-Apr-15 19:29N 26°04' W 080°07'0 0.0
2018-Apr-15 18:59N 26°04' W 080°07'0 0.0
2018-Apr-15 18:29N 26°04' W 080°07'0 0.0
2018-Apr-15 17:59N 26°04' W 080°07'0 0.0
2018-Apr-15 17:31N 26°04' W 080°07'0 0.0
2018-Apr-15 17:00N 26°04' W 080°07'0 0.0
2018-Apr-15 16:30N 26°04' W 080°07'0 0.0
2018-Apr-15 16:00N 26°04' W 080°07'0 0.0
2018-Apr-15 15:31N 26°04' W 080°07'0 0.1
2018-Apr-15 15:00N 26°04' W 080°07'0 0.1
2018-Apr-15 14:30N 26°04' W 080°07'0 0.0
2018-Apr-15 14:00N 26°04' W 080°07'0 0.0
2018-Apr-15 13:30N 26°04' W 080°07'0 0.0
2018-Apr-15 13:00N 26°04' W 080°07'0 0.1
2018-Apr-15 12:30N 26°04' W 080°07'0 0.0
2018-Apr-15 12:00N 26°04' W 080°07'0 0.0
2018-Apr-15 11:31N 26°04' W 080°07'0 0.0
2018-Apr-15 11:00N 26°04' W 080°07'0 0.0
2018-Apr-15 10:31N 26°04' W 080°07'0 0.0
2018-Apr-15 10:00N 26°04' W 080°07'0 0.0
2018-Apr-15 09:31N 26°04' W 080°07'0 0.0
2018-Apr-15 09:00N 26°04' W 080°07'0 0.0
2018-Apr-15 08:30N 26°04' W 080°07'0 0.0
2018-Apr-15 08:00N 26°04' W 080°07'0 0.0
2018-Apr-15 07:30N 26°04' W 080°07'0 0.0
2018-Apr-15 07:00N 26°04' W 080°07'0 0.0
2018-Apr-15 06:31N 26°04' W 080°07'0 0.0
2018-Apr-15 06:00N 26°04' W 080°07'0 0.0
2018-Apr-15 05:30N 26°04' W 080°07'0 0.0
2018-Apr-15 05:00N 26°04' W 080°07'0 0.0
2018-Apr-15 04:30N 26°04' W 080°07'0 0.0
2018-Apr-15 04:00N 26°04' W 080°07'0 0.0
2018-Apr-15 03:30N 26°04' W 080°07'0 0.0
2018-Apr-15 03:00N 26°04' W 080°07'0 0.0
2018-Apr-15 02:29N 26°04' W 080°07'0 0.0
2018-Apr-15 02:01N 26°04' W 080°07'0 0.0
2018-Apr-15 01:31N 26°04' W 080°07'0 0.0
2018-Apr-15 01:00N 26°04' W 080°07'0 0.0
2018-Apr-15 00:30N 26°04' W 080°07'0 0.0
2018-Apr-15 00:00N 26°04' W 080°07'0 0.0
2018-Apr-14 23:31N 26°04' W 080°07'0 0.0
2018-Apr-14 23:00N 26°04' W 080°07'0 0.0
2018-Apr-14 22:30N 26°04' W 080°07'0 0.0
2018-Apr-14 22:00N 26°04' W 080°07'0 0.0
2018-Apr-14 21:30N 26°04' W 080°07'0 0.1
2018-Apr-14 21:00N 26°04' W 080°07'0 0.0
2018-Apr-14 20:31N 26°04' W 080°07'0 0.0
2018-Apr-14 20:00N 26°04' W 080°07'0 0.7
2018-Apr-14 19:30N 26°04' W 080°07'1 2.4
2018-Apr-14 19:00N 26°06' W 080°07'3 5.3
2018-Apr-14 18:30N 26°06' W 080°04'3 6.1
2018-Apr-14 18:00N 26°05' W 080°01'2 4.9
2018-Apr-14 17:30N 26°03' W 079°59'3 5.8
2018-Apr-14 17:00N 26°00' W 079°58'3 5.4
2018-Apr-14 16:30N 25°58' W 079°58'2 4.1
2018-Apr-14 16:00N 25°56' W 079°58'1 2.9
2018-Apr-14 15:30N 25°57' W 079°59'1 2.8
2018-Apr-14 15:00N 25°58' W 079°59'1 1.6
2018-Apr-14 14:30N 25°58' W 079°59'3 6.7
2018-Apr-14 14:00N 25°54' W 079°59'4 7.1
2018-Apr-14 13:30N 25°51' W 079°58'4 7.8
2018-Apr-14 12:59N 25°47' W 079°57'4 7.9
2018-Apr-14 12:31N 25°43' W 079°56'5 9.0
2018-Apr-14 11:58N 25°38' W 079°55'  
Track history (hours):
 
Tides and Currents Weather Stations Pressure Air Temp Water Temp Dewpoint Dewpoint Depression Visibility Wind Speed Wind Dir Waves Ship Positions

Monitor

Owner: Crowley Puerto Rico Services, Inc., Jacksonville, FL. More information available from US FCC via Universal Licensing System and Coast Guard Vessel Documentation Center.

Last reported at 2018-Apr-20 16:16 UTC. Time now 2018-Apr-24 07:08 UTC.
Position N 26°28' W 076°43'.

Length 40 m; draft 5.8 m.

Type: Towing. MMSI: 366766920.

Date/timePositionNaut miles runAvg speedWind from/ knotsBaromVisibWave heightAir tempDewpointWater temp
2018-Apr-20 16:16N 26°28' W 076°43'6 9.5
2018-Apr-20 15:36N 26°33' W 076°48'1 9.8
2018-Apr-20 15:30N 26°34' W 076°48'5 9.6
2018-Apr-20 15:01N 26°38' W 076°52'5 9.8
2018-Apr-20 14:30N 26°42' W 076°55'510.1
2018-Apr-20 14:00N 26°46' W 076°59'  
2018-Apr-16 15:12N 26°19' W 079°54'312.9
2018-Apr-16 14:57N 26°16' W 079°54'612.7
2018-Apr-16 14:30N 26°10' W 079°54'510.1
2018-Apr-16 14:00N 26°08' W 079°59'510.0
2018-Apr-16 13:30N 26°06' W 080°04'3 5.4
2018-Apr-16 12:59N 26°05' W 080°07'1 2.0
2018-Apr-16 12:29N 26°04' W 080°07'0 1.0
2018-Apr-16 11:59N 26°04' W 080°07'0 0.0
2018-Apr-16 11:29N 26°04' W 080°07'0 0.0
2018-Apr-16 10:59N 26°04' W 080°07'0 0.0
2018-Apr-16 10:29N 26°04' W 080°07'0 0.0
2018-Apr-16 09:59N 26°04' W 080°07'0 0.0
2018-Apr-16 09:29N 26°04' W 080°07'0 0.0
2018-Apr-16 08:59N 26°04' W 080°07'0 0.0
2018-Apr-16 08:29N 26°04' W 080°07'0 0.0
2018-Apr-16 07:59N 26°04' W 080°07'0 0.0
2018-Apr-16 07:29N 26°04' W 080°07'0 0.0
2018-Apr-16 06:59N 26°04' W 080°07'0 0.0
2018-Apr-16 06:29N 26°04' W 080°07'0 0.0
2018-Apr-16 05:59N 26°04' W 080°07'0 0.0
2018-Apr-16 05:29N 26°04' W 080°07'0 0.0
2018-Apr-16 04:59N 26°04' W 080°07'0 0.0
2018-Apr-16 04:29N 26°04' W 080°07'0 0.0
2018-Apr-16 03:59N 26°04' W 080°07'0 0.0
2018-Apr-16 03:29N 26°04' W 080°07'0 0.0
2018-Apr-16 02:59N 26°04' W 080°07'0 0.0
2018-Apr-16 02:29N 26°04' W 080°07'0 0.0
2018-Apr-16 01:59N 26°04' W 080°07'0 0.0
2018-Apr-16 01:29N 26°04' W 080°07'0 0.0
2018-Apr-16 00:59N 26°04' W 080°07'0 0.0
2018-Apr-16 00:29N 26°04' W 080°07'0 0.0
2018-Apr-15 23:59N 26°04' W 080°07'0 0.0
2018-Apr-15 23:29N 26°04' W 080°07'0 0.0
2018-Apr-15 22:59N 26°04' W 080°07'0 0.0
2018-Apr-15 22:29N 26°04' W 080°07'0 0.0
2018-Apr-15 21:59N 26°04' W 080°07'0 0.0
2018-Apr-15 21:29N 26°04' W 080°07'0 0.0
2018-Apr-15 20:59N 26°04' W 080°07'0 0.0
2018-Apr-15 20:29N 26°04' W 080°07'0 0.0
2018-Apr-15 19:59N 26°04' W 080°07'0 0.0
2018-Apr-15 19:29N 26°04' W 080°07'0 0.0
2018-Apr-15 18:59N 26°04' W 080°07'0 0.0
2018-Apr-15 18:29N 26°04' W 080°07'0 0.0
2018-Apr-15 17:59N 26°04' W 080°07'0 0.0
2018-Apr-15 17:31N 26°04' W 080°07'0 0.0
2018-Apr-15 17:00N 26°04' W 080°07'0 0.0
2018-Apr-15 16:30N 26°04' W 080°07'0 0.0
2018-Apr-15 16:00N 26°04' W 080°07'0 0.0
2018-Apr-15 15:31N 26°04' W 080°07'0 0.1
2018-Apr-15 15:00N 26°04' W 080°07'0 0.1
2018-Apr-15 14:30N 26°04' W 080°07'0 0.0
2018-Apr-15 14:00N 26°04' W 080°07'0 0.0
2018-Apr-15 13:30N 26°04' W 080°07'0 0.0
2018-Apr-15 13:00N 26°04' W 080°07'0 0.1
2018-Apr-15 12:30N 26°04' W 080°07'0 0.0
2018-Apr-15 12:00N 26°04' W 080°07'0 0.0
2018-Apr-15 11:31N 26°04' W 080°07'0 0.0
2018-Apr-15 11:00N 26°04' W 080°07'0 0.0
2018-Apr-15 10:31N 26°04' W 080°07'0 0.0
2018-Apr-15 10:00N 26°04' W 080°07'0 0.0
2018-Apr-15 09:31N 26°04' W 080°07'0 0.0
2018-Apr-15 09:00N 26°04' W 080°07'0 0.0
2018-Apr-15 08:30N 26°04' W 080°07'0 0.0
2018-Apr-15 08:00N 26°04' W 080°07'0 0.0
2018-Apr-15 07:30N 26°04' W 080°07'0 0.0
2018-Apr-15 07:00N 26°04' W 080°07'0 0.0
2018-Apr-15 06:31N 26°04' W 080°07'0 0.0
2018-Apr-15 06:00N 26°04' W 080°07'0 0.0
2018-Apr-15 05:30N 26°04' W 080°07'0 0.0
2018-Apr-15 05:00N 26°04' W 080°07'0 0.0
2018-Apr-15 04:30N 26°04' W 080°07'0 0.0
2018-Apr-15 04:00N 26°04' W 080°07'0 0.0
2018-Apr-15 03:30N 26°04' W 080°07'0 0.0
2018-Apr-15 03:00N 26°04' W 080°07'0 0.0
2018-Apr-15 02:29N 26°04' W 080°07'0 0.0
2018-Apr-15 02:01N 26°04' W 080°07'0 0.0
2018-Apr-15 01:31N 26°04' W 080°07'0 0.0
2018-Apr-15 01:00N 26°04' W 080°07'0 0.0
2018-Apr-15 00:30N 26°04' W 080°07'0 0.0
2018-Apr-15 00:00N 26°04' W 080°07'0 0.0
2018-Apr-14 23:31N 26°04' W 080°07'0 0.0
2018-Apr-14 23:00N 26°04' W 080°07'0 0.0
2018-Apr-14 22:30N 26°04' W 080°07'0 0.0
2018-Apr-14 22:00N 26°04' W 080°07'0 0.0
2018-Apr-14 21:30N 26°04' W 080°07'0 0.1
2018-Apr-14 21:00N 26°04' W 080°07'0 0.0
2018-Apr-14 20:31N 26°04' W 080°07'0 0.0
2018-Apr-14 20:00N 26°04' W 080°07'0 0.7
2018-Apr-14 19:30N 26°04' W 080°07'1 2.4
2018-Apr-14 19:00N 26°06' W 080°07'3 5.3
2018-Apr-14 18:30N 26°06' W 080°04'3 6.1
2018-Apr-14 18:00N 26°05' W 080°01'2 4.9
2018-Apr-14 17:30N 26°03' W 079°59'3 5.8
2018-Apr-14 17:00N 26°00' W 079°58'3 5.4
2018-Apr-14 16:30N 25°58' W 079°58'2 4.1
2018-Apr-14 16:00N 25°56' W 079°58'1 2.9
2018-Apr-14 15:30N 25°57' W 079°59'1 2.8
2018-Apr-14 15:00N 25°58' W 079°59'1 1.6
2018-Apr-14 14:30N 25°58' W 079°59'3 6.7
2018-Apr-14 14:00N 25°54' W 079°59'4 7.1
2018-Apr-14 13:30N 25°51' W 079°58'4 7.8
2018-Apr-14 12:59N 25°47' W 079°57'4 7.9
2018-Apr-14 12:31N 25°43' W 079°56'5 9.0
2018-Apr-14 11:58N 25°38' W 079°55'  

Dump ship's entire track history